createdAt,value
2022-09-21T00:01:10.880Z,13.40
2022-09-21T00:03:39.579Z,13.40
2022-09-21T00:06:11.059Z,13.40
2022-09-21T00:08:39.675Z,13.50
2022-09-21T00:11:08.836Z,13.30
2022-09-21T00:13:38.000Z,13.40
2022-09-21T00:16:07.036Z,13.40
2022-09-21T00:18:36.355Z,13.40
2022-09-21T00:21:09.914Z,13.40
2022-09-21T00:23:38.839Z,13.30
2022-09-21T00:26:12.072Z,13.30
2022-09-21T00:28:41.382Z,13.30
2022-09-21T00:31:12.906Z,13.50
2022-09-21T00:33:41.999Z,13.40
2022-09-21T00:36:13.669Z,13.30
2022-09-21T00:38:42.582Z,13.30
2022-09-21T00:41:11.668Z,13.40
2022-09-21T00:43:43.918Z,13.30
2022-09-21T00:46:21.620Z,13.20
2022-09-21T00:48:50.048Z,13.30
2022-09-21T00:51:20.296Z,13.30
2022-09-21T00:53:53.183Z,13.20
2022-09-21T00:56:21.487Z,13.40
2022-09-21T00:58:51.974Z,13.30
2022-09-21T01:01:21.114Z,13.20
2022-09-21T01:03:50.397Z,13.10
2022-09-21T01:06:21.822Z,13.30
2022-09-21T01:08:53.924Z,13.30
2022-09-21T01:11:30.470Z,13.10
2022-09-21T01:14:16.611Z,13.20
2022-09-21T01:16:51.644Z,13.10
2022-09-21T01:19:33.818Z,13.20
2022-09-21T01:22:12.238Z,13.10
2022-09-21T01:24:53.094Z,13.10
2022-09-21T01:27:41.910Z,13.00
2022-09-21T01:30:15.060Z,13.00
2022-09-21T01:32:49.031Z,13.00
2022-09-21T01:35:21.810Z,13.00
2022-09-21T01:37:55.243Z,12.90
2022-09-21T01:40:26.971Z,13.00
2022-09-21T01:42:57.288Z,13.00
2022-09-21T01:45:32.300Z,12.90
2022-09-21T01:48:01.895Z,12.80
2022-09-21T01:50:34.010Z,12.90
2022-09-21T01:53:05.449Z,12.80
2022-09-21T01:55:40.201Z,12.80
2022-09-21T01:58:14.925Z,12.80
2022-09-21T02:00:48.086Z,12.70
2022-09-21T02:03:23.023Z,12.80
2022-09-21T02:05:51.097Z,12.70
2022-09-21T02:08:19.417Z,12.70
2022-09-21T02:10:51.193Z,12.60
2022-09-21T02:13:20.577Z,12.60
2022-09-21T02:16:05.529Z,12.50
2022-09-21T02:18:44.033Z,12.60
2022-09-21T02:21:22.890Z,12.60
2022-09-21T02:23:58.749Z,12.40
2022-09-21T02:26:34.877Z,12.50
2022-09-21T02:29:11.832Z,12.40
2022-09-21T02:31:48.209Z,12.40
2022-09-21T02:34:21.550Z,12.40
2022-09-21T02:36:54.788Z,12.30
2022-09-21T02:39:31.952Z,12.30
2022-09-21T02:42:07.626Z,12.20
2022-09-21T02:44:41.162Z,12.20
2022-09-21T02:47:16.609Z,12.30
2022-09-21T02:49:51.345Z,12.10
2022-09-21T02:52:20.764Z,12.10
2022-09-21T02:54:52.952Z,12.10
2022-09-21T02:57:23.716Z,12.10
2022-09-21T02:59:52.268Z,12.00
2022-09-21T03:02:21.597Z,12.00
2022-09-21T03:04:50.282Z,12.10
2022-09-21T03:07:18.736Z,12.00
2022-09-21T03:09:46.689Z,11.90
2022-09-21T03:12:14.698Z,11.90
2022-09-21T03:14:42.850Z,12.00
2022-09-21T03:17:10.790Z,11.90
2022-09-21T03:19:40.643Z,11.90
2022-09-21T03:22:08.565Z,11.80
2022-09-21T03:24:48.445Z,11.80
2022-09-21T03:27:17.662Z,11.80
2022-09-21T03:29:45.791Z,11.80
2022-09-21T03:32:14.441Z,11.80
2022-09-21T03:34:44.010Z,11.70
2022-09-21T03:37:11.968Z,11.60
2022-09-21T03:39:39.905Z,11.70
2022-09-21T03:42:09.165Z,11.60
2022-09-21T03:44:38.189Z,11.60
2022-09-21T03:47:06.795Z,11.50
2022-09-21T03:49:35.292Z,11.50
2022-09-21T03:52:05.287Z,11.40
2022-09-21T03:54:33.229Z,11.50
2022-09-21T03:57:01.336Z,11.50
2022-09-21T03:59:29.303Z,11.40
2022-09-21T04:01:57.242Z,11.50
2022-09-21T04:04:25.257Z,11.40
2022-09-21T04:06:53.141Z,11.40
2022-09-21T04:09:22.458Z,11.40
2022-09-21T04:11:52.293Z,11.30
2022-09-21T04:14:20.349Z,11.30
2022-09-21T04:16:48.361Z,11.30
2022-09-21T04:19:16.609Z,11.30
2022-09-21T04:21:44.762Z,11.20
2022-09-21T04:24:12.787Z,11.20
2022-09-21T04:26:42.122Z,11.10
2022-09-21T04:29:11.021Z,11.20
2022-09-21T04:31:38.976Z,11.10
2022-09-21T04:34:07.126Z,11.10
2022-09-21T04:36:36.814Z,11.10
2022-09-21T04:39:05.877Z,11.10
2022-09-21T04:41:34.042Z,11.00
2022-09-21T04:44:03.663Z,11.00
2022-09-21T04:46:31.696Z,11.00
2022-09-21T04:48:59.678Z,11.00
2022-09-21T04:51:27.671Z,11.00
2022-09-21T04:53:55.635Z,11.00
2022-09-21T04:56:23.658Z,11.00
2022-09-21T04:58:51.721Z,11.00
2022-09-21T05:01:21.065Z,10.90
2022-09-21T05:03:49.094Z,11.00
2022-09-21T05:06:17.114Z,11.00
2022-09-21T05:09:02.529Z,11.00
2022-09-21T05:11:30.487Z,11.00
2022-09-21T05:13:58.517Z,11.00
2022-09-21T05:16:27.907Z,11.00
2022-09-21T05:18:56.092Z,11.00
2022-09-21T05:21:24.016Z,11.00
2022-09-21T05:23:52.183Z,10.90
2022-09-21T05:26:21.177Z,11.00
2022-09-21T05:28:49.815Z,11.00
2022-09-21T05:31:33.951Z,10.90
2022-09-21T05:34:11.092Z,11.00
2022-09-21T05:36:47.749Z,10.90
2022-09-21T05:39:16.239Z,10.90
2022-09-21T05:41:44.645Z,10.90
2022-09-21T05:44:15.347Z,10.90
2022-09-21T05:46:54.003Z,10.90
2022-09-21T05:49:33.016Z,10.90
2022-09-21T05:52:06.509Z,10.90
2022-09-21T05:54:45.792Z,10.90
2022-09-21T05:57:18.500Z,10.90
2022-09-21T06:00:04.405Z,10.80
2022-09-21T06:02:51.717Z,10.80
2022-09-21T06:05:20.498Z,10.80
2022-09-21T06:07:48.406Z,10.90
2022-09-21T06:10:16.975Z,10.80
2022-09-21T06:12:44.931Z,10.90
2022-09-21T06:15:15.839Z,10.90
2022-09-21T06:17:45.226Z,10.90
2022-09-21T06:20:13.150Z,10.90
2022-09-21T06:22:41.067Z,10.90
2022-09-21T06:25:09.486Z,10.90
2022-09-21T06:27:37.578Z,11.00
2022-09-21T06:30:06.203Z,10.90
2022-09-21T06:32:34.150Z,11.00
2022-09-21T06:35:03.416Z,11.00
2022-09-21T06:37:31.290Z,11.00
2022-09-21T06:39:59.260Z,11.00
2022-09-21T06:42:28.948Z,11.00
2022-09-21T06:44:56.838Z,11.10
2022-09-21T06:47:24.919Z,11.10
2022-09-21T06:49:54.106Z,11.10
2022-09-21T06:52:23.354Z,11.10
2022-09-21T06:54:51.251Z,11.10
2022-09-21T06:57:19.163Z,11.20
2022-09-21T06:59:47.087Z,11.20
2022-09-21T07:02:15.066Z,11.20
2022-09-21T07:04:43.182Z,11.30
2022-09-21T07:07:11.204Z,11.30
2022-09-21T07:12:29.233Z,11.30
2022-09-21T07:14:57.342Z,11.30
2022-09-21T07:17:25.265Z,11.40
2022-09-21T07:19:53.164Z,11.30
2022-09-21T07:22:21.113Z,11.40
2022-09-21T07:24:50.367Z,11.40
2022-09-21T07:27:18.295Z,11.50
2022-09-21T07:29:46.209Z,11.50
2022-09-21T07:32:14.612Z,11.60
2022-09-21T07:34:42.511Z,11.50
2022-09-21T07:37:10.460Z,11.60
2022-09-21T07:39:38.871Z,11.70
2022-09-21T07:42:08.724Z,11.70
2022-09-21T07:44:36.681Z,11.80
2022-09-21T07:47:04.620Z,11.80
2022-09-21T07:49:32.546Z,11.80
2022-09-21T07:52:04.890Z,11.90
2022-09-21T07:54:34.437Z,11.90
2022-09-21T07:57:20.084Z,11.90
2022-09-21T07:59:49.379Z,12.00
2022-09-21T08:02:17.471Z,12.10
2022-09-21T08:04:45.504Z,12.20
2022-09-21T08:07:13.474Z,12.20
2022-09-21T08:09:41.832Z,12.30
2022-09-21T08:12:11.067Z,12.30
2022-09-21T08:14:38.972Z,12.30
2022-09-21T08:17:08.288Z,12.40
2022-09-21T08:19:36.294Z,12.40
2022-09-21T08:22:04.301Z,12.60
2022-09-21T08:24:33.079Z,12.70
2022-09-21T08:27:01.065Z,12.70
2022-09-21T08:29:29.262Z,12.70
2022-09-21T08:31:58.137Z,12.80
2022-09-21T08:34:27.984Z,12.90
2022-09-21T08:36:56.085Z,12.90
2022-09-21T08:39:24.731Z,13.00
2022-09-21T08:42:05.975Z,13.00
2022-09-21T08:44:41.780Z,13.10
2022-09-21T08:47:15.963Z,13.10
2022-09-21T08:49:51.034Z,13.20
2022-09-21T08:52:21.447Z,13.40
2022-09-21T08:54:56.027Z,13.30
2022-09-21T08:57:30.432Z,13.50
2022-09-21T09:00:00.020Z,13.60
2022-09-21T09:02:42.305Z,13.60
2022-09-21T09:05:28.461Z,13.70
2022-09-21T09:08:19.495Z,13.80
2022-09-21T09:10:57.564Z,13.90
2022-09-21T09:13:47.516Z,14.00
2022-09-21T09:16:24.833Z,14.10
2022-09-21T09:18:55.616Z,14.20
2022-09-21T09:21:32.246Z,14.20
2022-09-21T09:24:05.405Z,14.30
2022-09-21T09:26:39.846Z,14.50
2022-09-21T09:29:17.337Z,14.50
2022-09-21T09:31:46.507Z,14.60
2022-09-21T09:34:18.783Z,14.60
2022-09-21T09:36:58.903Z,14.90
2022-09-21T09:39:29.793Z,14.80
2022-09-21T09:42:20.106Z,15.00
2022-09-21T09:45:15.748Z,15.00
2022-09-21T09:47:56.141Z,15.10
2022-09-21T09:50:29.100Z,15.10
2022-09-21T09:53:05.007Z,15.30
2022-09-21T09:55:39.068Z,15.40
2022-09-21T09:58:13.182Z,15.50
2022-09-21T10:00:41.289Z,15.60
2022-09-21T10:03:18.060Z,15.70
2022-09-21T10:05:46.412Z,15.60
2022-09-21T10:08:43.755Z,15.80
2022-09-21T10:11:13.298Z,15.80
2022-09-21T10:13:43.615Z,16.00
2022-09-21T10:16:16.410Z,16.00
2022-09-21T10:18:48.897Z,16.10
2022-09-21T10:21:23.480Z,16.10
2022-09-21T10:23:57.663Z,16.20
2022-09-21T10:26:31.113Z,16.30
2022-09-21T10:29:00.863Z,16.40
2022-09-21T10:31:30.174Z,16.50
2022-09-21T10:34:13.670Z,16.70
2022-09-21T10:36:43.036Z,16.60
2022-09-21T10:39:21.165Z,16.60
2022-09-21T10:41:55.292Z,16.70
2022-09-21T10:44:27.343Z,16.80
2022-09-21T10:49:30.361Z,16.90
2022-09-21T10:52:00.152Z,17.00
2022-09-21T10:54:32.927Z,17.10
2022-09-21T10:57:05.271Z,17.20
2022-09-21T10:59:37.068Z,17.20
2022-09-21T11:02:27.889Z,17.20
2022-09-21T11:05:01.148Z,17.30
2022-09-21T11:07:34.168Z,17.40
2022-09-21T11:10:12.229Z,17.50
2022-09-21T11:12:50.025Z,17.60
2022-09-21T11:15:29.062Z,17.60
2022-09-21T11:18:07.192Z,17.70
2022-09-21T11:20:42.260Z,17.80
2022-09-21T11:23:22.955Z,17.80
2022-09-21T11:26:01.418Z,17.90
2022-09-21T11:28:37.550Z,17.90
2022-09-21T11:31:22.959Z,18.00
2022-09-21T11:34:07.968Z,18.10
2022-09-21T11:36:47.635Z,18.20
2022-09-21T11:39:29.161Z,18.30
2022-09-21T11:42:16.487Z,18.20
2022-09-21T11:44:53.167Z,18.30
2022-09-21T11:47:46.725Z,18.30
2022-09-21T11:50:33.853Z,18.30
2022-09-21T11:53:16.052Z,18.50
2022-09-21T11:55:57.033Z,18.50
2022-09-21T11:58:34.321Z,18.60
2022-09-21T12:01:17.034Z,18.50
2022-09-21T12:04:03.554Z,18.40
2022-09-21T12:06:46.059Z,18.60
2022-09-21T12:09:44.941Z,18.50
2022-09-21T12:12:18.196Z,18.70
2022-09-21T12:14:55.585Z,18.70
2022-09-21T12:17:34.506Z,18.70
2022-09-21T12:20:07.794Z,18.90
2022-09-21T12:22:39.806Z,18.70
2022-09-21T12:25:18.016Z,18.70
2022-09-21T12:27:49.669Z,19.00
2022-09-21T12:30:20.934Z,19.00
2022-09-21T12:32:56.612Z,19.00
2022-09-21T12:35:31.671Z,19.10
2022-09-21T12:38:05.100Z,19.10
2022-09-21T12:40:39.424Z,19.20
2022-09-21T12:43:18.041Z,19.40
2022-09-21T12:45:53.555Z,19.30
2022-09-21T12:48:31.788Z,19.50
2022-09-21T12:51:06.189Z,19.50
2022-09-21T12:53:37.675Z,19.40
2022-09-21T12:56:10.100Z,19.50
2022-09-21T12:59:11.401Z,19.60
2022-09-21T13:01:47.765Z,19.60
2022-09-21T13:04:38.383Z,19.60
2022-09-21T13:07:36.608Z,19.70
2022-09-21T13:10:15.008Z,19.70
2022-09-21T13:12:46.682Z,19.60
2022-09-21T13:15:21.295Z,19.70
2022-09-21T13:18:00.394Z,19.70
2022-09-21T13:20:33.858Z,19.70
2022-09-21T13:23:02.558Z,19.60
2022-09-21T13:25:34.679Z,19.60
2022-09-21T13:28:09.137Z,19.60
2022-09-21T13:30:40.517Z,19.60
2022-09-21T13:33:32.306Z,19.60
2022-09-21T13:36:10.608Z,19.60
2022-09-21T13:38:58.248Z,19.60
2022-09-21T13:41:40.253Z,19.70
2022-09-21T13:44:22.356Z,19.70
2022-09-21T13:46:53.288Z,19.90
2022-09-21T13:49:32.037Z,19.90
2022-09-21T13:52:03.212Z,20.00
2022-09-21T13:54:35.236Z,20.10
2022-09-21T13:57:18.016Z,20.30
2022-09-21T13:59:49.207Z,20.40
2022-09-21T14:02:32.449Z,20.50
2022-09-21T14:05:07.821Z,20.60
2022-09-21T14:07:36.753Z,20.50
2022-09-21T14:10:08.900Z,20.60
2022-09-21T14:12:44.375Z,20.60
2022-09-21T14:15:38.437Z,20.50
2022-09-21T14:18:37.576Z,20.50
2022-09-21T14:21:21.014Z,20.50
2022-09-21T14:24:20.665Z,20.50
2022-09-21T14:27:01.223Z,20.40
2022-09-21T14:29:39.429Z,20.40
2022-09-21T14:32:16.210Z,20.50
2022-09-21T14:34:48.396Z,20.50
2022-09-21T14:37:31.326Z,20.60
2022-09-21T14:40:00.949Z,20.70
2022-09-21T14:42:31.863Z,20.70
2022-09-21T14:45:02.092Z,20.80
2022-09-21T14:48:03.188Z,20.80
2022-09-21T14:50:37.358Z,20.90
2022-09-21T14:53:39.109Z,20.90
2022-09-21T14:56:25.610Z,21.00
2022-09-21T14:59:08.569Z,21.00
2022-09-21T15:01:41.306Z,21.00
2022-09-21T15:04:46.197Z,21.00
2022-09-21T15:07:56.017Z,21.00
2022-09-21T15:10:53.003Z,21.00
2022-09-21T15:13:41.584Z,21.00
2022-09-21T15:16:25.798Z,21.00
2022-09-21T15:19:06.772Z,20.90
2022-09-21T15:21:35.588Z,20.90
2022-09-21T15:24:18.236Z,20.90
2022-09-21T15:26:48.676Z,20.80
2022-09-21T15:29:25.468Z,20.80
2022-09-21T15:31:54.009Z,20.70
2022-09-21T15:34:23.284Z,20.70
2022-09-21T15:36:51.963Z,20.60
2022-09-21T15:39:28.168Z,20.60
2022-09-21T15:42:22.719Z,20.50
2022-09-21T15:44:55.157Z,20.40
2022-09-21T15:47:26.428Z,20.40
2022-09-21T15:49:56.838Z,20.30
2022-09-21T15:52:31.488Z,20.20
2022-09-21T15:55:00.756Z,20.10
2022-09-21T15:57:38.876Z,20.10
2022-09-21T16:00:21.420Z,20.00
2022-09-21T16:03:06.349Z,20.00
2022-09-21T16:05:44.287Z,19.90
2022-09-21T16:08:23.587Z,19.80
2022-09-21T16:10:51.792Z,19.70
2022-09-21T16:13:40.992Z,19.70
2022-09-21T16:16:11.130Z,19.70
2022-09-21T16:18:46.431Z,19.60
2022-09-21T16:21:22.746Z,19.60
2022-09-21T16:23:51.924Z,19.50
2022-09-21T16:26:22.829Z,19.40
2022-09-21T16:28:58.806Z,19.40
2022-09-21T16:31:36.802Z,19.30
2022-09-21T16:34:37.240Z,19.30
2022-09-21T16:37:25.238Z,19.20
2022-09-21T16:39:53.941Z,19.10
2022-09-21T16:42:23.576Z,19.10
2022-09-21T16:44:53.183Z,19.00
2022-09-21T16:47:25.278Z,19.00
2022-09-21T16:49:56.322Z,18.90
2022-09-21T16:52:24.625Z,18.90
2022-09-21T16:54:52.819Z,18.80
2022-09-21T16:57:21.174Z,18.70
2022-09-21T16:59:49.679Z,18.70
2022-09-21T17:02:19.486Z,18.70
2022-09-21T17:04:48.138Z,18.60
2022-09-21T17:07:18.843Z,18.50
2022-09-21T17:09:48.188Z,18.40
2022-09-21T17:12:17.866Z,18.40
2022-09-21T17:14:47.239Z,18.30
2022-09-21T17:17:20.339Z,18.20
2022-09-21T17:19:49.948Z,18.10
2022-09-21T17:22:18.668Z,18.10
2022-09-21T17:24:50.743Z,18.00
2022-09-21T17:27:21.422Z,18.00
2022-09-21T17:29:50.425Z,17.90
2022-09-21T17:32:21.690Z,17.80
2022-09-21T17:34:56.213Z,17.70
2022-09-21T17:37:25.066Z,17.70
2022-09-21T17:39:53.631Z,17.60
2022-09-21T17:42:25.604Z,17.60
2022-09-21T17:45:12.630Z,17.50
2022-09-21T17:47:42.828Z,17.50
2022-09-21T17:50:26.121Z,17.30
2022-09-21T17:53:12.918Z,17.20
2022-09-21T17:55:46.482Z,17.20
2022-09-21T17:58:37.618Z,17.10
2022-09-21T18:01:08.492Z,17.00
2022-09-21T18:03:41.123Z,17.00
2022-09-21T18:06:10.617Z,16.90
2022-09-21T18:08:40.348Z,16.80
2022-09-21T18:11:17.074Z,16.80
2022-09-21T18:13:55.153Z,16.60
2022-09-21T18:16:35.855Z,16.50
2022-09-21T18:19:29.124Z,16.50
2022-09-21T18:22:02.169Z,16.50
2022-09-21T18:24:32.265Z,16.50
2022-09-21T18:27:01.777Z,16.30
2022-09-21T18:29:41.128Z,16.30
2022-09-21T18:32:47.180Z,16.20
2022-09-21T18:35:31.168Z,16.20
2022-09-21T18:38:12.785Z,16.00
2022-09-21T18:40:54.301Z,16.10
2022-09-21T18:43:30.627Z,16.00
2022-09-21T18:46:03.601Z,15.80
2022-09-21T18:48:52.778Z,15.80
2022-09-21T18:51:28.536Z,15.80
2022-09-21T18:53:58.305Z,15.80
2022-09-21T18:56:28.007Z,15.50
2022-09-21T18:58:57.054Z,15.60
2022-09-21T19:01:29.080Z,15.60
2022-09-21T19:03:57.690Z,15.40
2022-09-21T19:06:47.508Z,15.40
2022-09-21T19:09:38.455Z,15.30
2022-09-21T19:12:20.236Z,15.30
2022-09-21T19:14:58.907Z,15.30
2022-09-21T19:17:41.238Z,15.10
2022-09-21T19:20:32.082Z,15.10
2022-09-21T19:23:12.007Z,15.10
2022-09-21T19:25:48.834Z,15.00
2022-09-21T19:28:35.003Z,15.00
2022-09-21T19:31:09.091Z,14.90
2022-09-21T19:33:51.779Z,14.90
2022-09-21T19:36:20.515Z,14.80
2022-09-21T19:38:50.292Z,14.80
2022-09-21T19:41:34.960Z,14.80
2022-09-21T19:44:15.208Z,14.70
2022-09-21T19:46:52.098Z,14.60
2022-09-21T19:49:22.147Z,14.50
2022-09-21T19:51:52.158Z,14.40
2022-09-21T19:54:41.061Z,14.40
2022-09-21T19:57:32.387Z,14.40
2022-09-21T20:00:01.380Z,14.40
2022-09-21T20:02:34.820Z,14.20
2022-09-21T20:05:07.680Z,14.20
2022-09-21T20:07:44.375Z,14.20
2022-09-21T20:10:40.840Z,14.10
2022-09-21T20:13:22.003Z,14.10
2022-09-21T20:15:53.422Z,14.00
2022-09-21T20:18:31.165Z,14.00
2022-09-21T20:20:59.874Z,14.00
2022-09-21T20:23:28.701Z,13.90
2022-09-21T20:26:06.175Z,13.90
2022-09-21T20:28:34.691Z,13.80
2022-09-21T20:31:02.742Z,13.80
2022-09-21T20:33:32.140Z,13.80
2022-09-21T20:36:00.373Z,13.70
2022-09-21T20:38:28.294Z,13.60
2022-09-21T20:40:56.620Z,13.60
2022-09-21T20:43:32.421Z,13.60
2022-09-21T20:46:00.799Z,13.50
2022-09-21T20:48:28.814Z,13.50
2022-09-21T20:50:57.151Z,13.60
2022-09-21T20:53:25.161Z,13.40
2022-09-21T20:55:57.556Z,13.50
2022-09-21T20:58:27.321Z,13.30
2022-09-21T21:00:59.053Z,13.30
2022-09-21T21:03:27.335Z,13.30
2022-09-21T21:05:55.814Z,13.30
2022-09-21T21:08:23.901Z,13.20
2022-09-21T21:10:52.005Z,13.20
2022-09-21T21:13:23.271Z,13.10
2022-09-21T21:15:55.424Z,13.10
2022-09-21T21:18:23.409Z,13.10
2022-09-21T21:20:52.255Z,13.10
2022-09-21T21:23:20.257Z,13.10
2022-09-21T21:25:48.867Z,13.00
2022-09-21T21:28:17.570Z,12.90
2022-09-21T21:30:46.094Z,12.90
2022-09-21T21:33:15.465Z,12.90
2022-09-21T21:35:44.513Z,12.90
2022-09-21T21:38:13.437Z,12.80
2022-09-21T21:40:41.425Z,12.70
2022-09-21T21:43:09.483Z,12.80
2022-09-21T21:45:37.699Z,12.70
2022-09-21T21:48:05.630Z,12.70
2022-09-21T21:50:35.846Z,12.70
2022-09-21T21:53:03.785Z,12.70
2022-09-21T21:55:31.765Z,12.60
2022-09-21T21:57:59.712Z,12.60
2022-09-21T22:00:27.680Z,12.50
2022-09-21T22:02:57.016Z,12.60
2022-09-21T22:05:25.134Z,12.50
2022-09-21T22:07:54.408Z,12.50
2022-09-21T22:10:22.313Z,12.40
2022-09-21T22:12:52.624Z,12.40
2022-09-21T22:15:20.549Z,12.40
2022-09-21T22:17:49.794Z,12.30
2022-09-21T22:20:17.879Z,12.30
2022-09-21T22:22:45.792Z,12.30
2022-09-21T22:25:15.196Z,12.20
2022-09-21T22:27:43.067Z,12.30
2022-09-21T22:30:11.590Z,12.20
2022-09-21T22:32:39.772Z,12.20
2022-09-21T22:35:08.407Z,12.20
2022-09-21T22:37:36.388Z,12.10
2022-09-21T22:40:04.489Z,12.10
2022-09-21T22:42:33.838Z,12.10
2022-09-21T22:45:01.799Z,12.00
2022-09-21T22:47:29.813Z,12.10
2022-09-21T22:49:57.743Z,12.00
2022-09-21T22:52:25.683Z,12.00
2022-09-21T22:54:53.583Z,12.00
2022-09-21T22:57:21.473Z,11.90
2022-09-21T22:59:50.854Z,11.90
2022-09-21T23:02:18.766Z,11.90
2022-09-21T23:04:46.954Z,11.80
2022-09-21T23:07:16.928Z,11.80
2022-09-21T23:09:44.990Z,11.80
2022-09-21T23:12:12.931Z,11.80
2022-09-21T23:14:40.856Z,11.80
2022-09-21T23:17:10.174Z,11.80
2022-09-21T23:19:38.589Z,11.70
2022-09-21T23:22:06.620Z,11.70
2022-09-21T23:24:34.974Z,11.70
2022-09-21T23:27:02.840Z,11.60
2022-09-21T23:29:30.850Z,11.70
2022-09-21T23:31:58.905Z,11.60
2022-09-21T23:34:28.192Z,11.60
2022-09-21T23:36:56.132Z,11.60
2022-09-21T23:39:24.041Z,11.60
2022-09-21T23:41:52.001Z,11.50
2022-09-21T23:44:19.943Z,11.50
2022-09-21T23:46:47.960Z,11.40
2022-09-21T23:49:16.086Z,11.50
2022-09-21T23:51:45.407Z,11.40
2022-09-21T23:54:15.090Z,11.40
2022-09-21T23:56:43.882Z,11.30
2022-09-21T23:59:11.818Z,11.40
